createdAt,value
2023-03-16T00:00:18.657Z,21.20
2023-03-16T00:02:45.608Z,18.58
2023-03-16T00:05:14.240Z,19.88
2023-03-16T00:07:44.620Z,23.73
2023-03-16T00:10:13.392Z,18.65
2023-03-16T00:12:40.295Z,12.50
2023-03-16T00:15:07.761Z,13.95
2023-03-16T00:17:34.865Z,15.55
2023-03-16T00:20:06.657Z,17.90
2023-03-16T00:22:36.321Z,16.65
2023-03-16T00:25:04.572Z,19.38
2023-03-16T00:27:31.578Z,21.60
2023-03-16T00:29:58.537Z,15.85
2023-03-16T00:32:32.092Z,22.58
2023-03-16T00:35:01.576Z,21.65
2023-03-16T00:37:29.144Z,15.35
2023-03-16T00:39:56.498Z,16.92
2023-03-16T00:42:27.784Z,19.45
2023-03-16T00:44:57.797Z,17.85
2023-03-16T00:47:31.286Z,17.33
2023-03-16T00:49:58.954Z,16.38
2023-03-16T00:52:27.626Z,14.30
2023-03-16T00:54:55.897Z,16.73
2023-03-16T00:57:25.361Z,15.35
2023-03-16T00:59:52.792Z,19.75
2023-03-16T01:02:23.816Z,15.93
2023-03-16T01:07:19.572Z,22.42
2023-03-16T01:09:46.529Z,16.55
2023-03-16T01:12:19.254Z,18.33
2023-03-16T01:14:46.841Z,22.42
2023-03-16T01:17:15.498Z,12.40
2023-03-16T01:19:42.935Z,18.67
2023-03-16T01:22:11.737Z,17.80
2023-03-16T01:24:39.269Z,17.42
2023-03-16T01:27:07.091Z,17.63
2023-03-16T01:29:34.247Z,15.30
2023-03-16T01:32:01.952Z,19.00
2023-03-16T01:34:28.937Z,20.17
2023-03-16T01:36:56.142Z,25.10
2023-03-16T01:39:23.372Z,18.50
2023-03-16T01:41:51.020Z,19.75
2023-03-16T01:44:22.728Z,16.75
2023-03-16T01:46:49.877Z,18.02
2023-03-16T01:49:25.973Z,21.25
2023-03-16T01:52:08.726Z,23.08
2023-03-16T01:54:42.589Z,18.35
2023-03-16T01:57:20.252Z,20.42
2023-03-16T01:59:59.254Z,18.40
2023-03-16T02:02:30.343Z,20.65
2023-03-16T02:05:07.305Z,14.80
2023-03-16T02:07:43.229Z,20.52
2023-03-16T02:10:12.588Z,12.07
2023-03-16T02:12:39.951Z,17.88
2023-03-16T02:15:07.405Z,18.67
2023-03-16T02:17:35.590Z,21.05
2023-03-16T02:20:36.242Z,24.98
2023-03-16T02:23:04.634Z,21.08
2023-03-16T02:25:46.122Z,19.83
2023-03-16T02:28:31.060Z,17.92
2023-03-16T02:30:58.592Z,17.80
2023-03-16T02:33:26.324Z,14.63
2023-03-16T02:35:53.275Z,20.35
2023-03-16T02:38:20.256Z,18.35
2023-03-16T02:40:59.762Z,18.42
2023-03-16T02:43:33.409Z,17.38
2023-03-16T02:46:05.520Z,20.25
2023-03-16T02:48:56.608Z,17.63
2023-03-16T02:51:23.522Z,18.70
2023-03-16T02:53:50.595Z,21.70
2023-03-16T02:56:17.445Z,13.88
2023-03-16T02:58:44.445Z,21.73
2023-03-16T03:01:11.583Z,22.20
2023-03-16T03:03:38.562Z,19.13
2023-03-16T03:06:05.909Z,21.27
2023-03-16T03:08:33.521Z,18.02
2023-03-16T03:11:00.814Z,14.90
2023-03-16T03:13:27.756Z,24.92
2023-03-16T03:15:54.628Z,23.77
2023-03-16T03:18:21.485Z,30.10
2023-03-16T03:20:48.467Z,25.52
2023-03-16T03:23:17.149Z,31.77
2023-03-16T03:25:44.066Z,29.33
2023-03-16T03:28:11.542Z,31.70
2023-03-16T03:30:38.555Z,35.17
2023-03-16T03:33:05.526Z,27.42
2023-03-16T03:35:32.606Z,27.33
2023-03-16T03:37:59.556Z,32.08
2023-03-16T03:40:26.668Z,31.55
2023-03-16T03:42:53.760Z,22.95
2023-03-16T03:45:20.737Z,13.98
2023-03-16T03:47:47.684Z,20.85
2023-03-16T03:50:14.715Z,19.63
2023-03-16T03:52:41.961Z,23.42
2023-03-16T03:55:10.920Z,16.48
2023-03-16T03:57:38.158Z,16.48
2023-03-16T04:00:11.108Z,19.30
2023-03-16T04:02:39.014Z,16.88
2023-03-16T04:05:07.434Z,17.13
2023-03-16T04:07:34.732Z,17.55
2023-03-16T04:10:01.600Z,21.80
2023-03-16T04:12:28.509Z,23.83
2023-03-16T04:14:55.393Z,20.15
2023-03-16T04:17:23.918Z,26.35
2023-03-16T04:19:50.970Z,24.88
2023-03-16T04:22:18.289Z,17.83
2023-03-16T04:24:45.355Z,29.92
2023-03-16T04:27:12.422Z,25.60
2023-03-16T04:29:39.432Z,18.98
2023-03-16T04:32:07.762Z,23.98
2023-03-16T04:34:34.738Z,26.85
2023-03-16T04:37:02.458Z,33.65
2023-03-16T04:39:29.532Z,42.42
2023-03-16T04:41:56.397Z,29.58
2023-03-16T04:44:23.259Z,30.35
2023-03-16T04:46:50.150Z,34.55
2023-03-16T04:49:17.052Z,23.92
2023-03-16T04:51:43.928Z,35.55
2023-03-16T04:54:11.408Z,25.13
2023-03-16T04:56:41.581Z,50.22
2023-03-16T04:59:08.599Z,43.15
2023-03-16T05:01:35.612Z,30.48
2023-03-16T05:04:02.592Z,34.80
2023-03-16T05:06:29.851Z,23.08
2023-03-16T05:08:58.839Z,27.08
2023-03-16T05:11:25.726Z,26.80
2023-03-16T05:13:52.712Z,27.48
2023-03-16T05:16:19.719Z,30.80
2023-03-16T05:18:46.652Z,40.30
2023-03-16T05:21:13.594Z,27.80
2023-03-16T05:23:40.462Z,22.52
2023-03-16T05:26:07.763Z,23.63
2023-03-16T05:28:34.632Z,29.23
2023-03-16T05:31:03.956Z,32.30
2023-03-16T05:33:30.972Z,35.22
2023-03-16T05:35:58.257Z,40.47
2023-03-16T05:38:27.639Z,31.60
2023-03-16T05:40:54.896Z,33.47
2023-03-16T05:43:22.369Z,53.03
2023-03-16T05:45:49.753Z,28.92
2023-03-16T05:48:16.682Z,49.17
2023-03-16T05:50:43.876Z,28.48
2023-03-16T05:53:10.883Z,31.08
2023-03-16T05:55:37.779Z,38.42
2023-03-16T05:58:05.810Z,57.67
2023-03-16T06:00:33.135Z,39.17
2023-03-16T06:03:01.522Z,51.15
2023-03-16T06:05:29.659Z,41.05
2023-03-16T06:07:56.553Z,40.40
2023-03-16T06:10:23.975Z,34.83
2023-03-16T06:12:51.634Z,50.63
2023-03-16T06:15:18.843Z,39.83
2023-03-16T06:17:45.741Z,45.78
2023-03-16T06:20:13.769Z,38.08
2023-03-16T06:22:42.547Z,31.77
2023-03-16T06:25:11.110Z,38.05
2023-03-16T06:27:38.643Z,36.75
2023-03-16T06:30:08.740Z,36.22
2023-03-16T06:32:36.409Z,34.65
2023-03-16T06:35:03.714Z,32.53
2023-03-16T06:37:31.369Z,49.28
2023-03-16T06:39:58.345Z,44.42
2023-03-16T06:42:25.584Z,31.33
2023-03-16T06:44:52.936Z,41.40
2023-03-16T06:47:20.646Z,29.27
2023-03-16T06:49:47.733Z,37.70
2023-03-16T06:52:15.127Z,37.78
2023-03-16T06:54:42.050Z,32.88
2023-03-16T06:57:09.284Z,27.75
2023-03-16T06:59:36.300Z,22.15
2023-03-16T07:02:03.284Z,26.08
2023-03-16T07:04:30.244Z,28.85
2023-03-16T07:06:57.382Z,37.40
2023-03-16T07:09:24.285Z,34.90
2023-03-16T07:11:53.088Z,36.38
2023-03-16T07:14:20.113Z,28.85
2023-03-16T07:16:47.029Z,33.30
2023-03-16T07:19:13.930Z,25.67
2023-03-16T07:21:42.059Z,24.17
2023-03-16T07:24:10.471Z,22.35
2023-03-16T07:26:37.741Z,25.90
2023-03-16T07:29:06.460Z,41.10
2023-03-16T07:31:34.779Z,30.13
2023-03-16T07:34:02.534Z,37.08
2023-03-16T07:36:29.900Z,37.25
2023-03-16T07:38:56.771Z,34.97
2023-03-16T07:41:24.809Z,27.13
2023-03-16T07:43:52.350Z,27.05
2023-03-16T07:46:19.329Z,32.50
2023-03-16T07:48:46.218Z,33.67
2023-03-16T07:51:14.120Z,30.08
2023-03-16T07:53:43.232Z,32.15
2023-03-16T07:56:10.362Z,33.13
2023-03-16T07:58:37.455Z,29.45
2023-03-16T08:01:04.380Z,24.88
2023-03-16T08:03:32.161Z,26.00
2023-03-16T08:05:59.693Z,27.13
2023-03-16T08:08:26.622Z,31.08
2023-03-16T08:10:56.207Z,25.55
2023-03-16T08:13:23.780Z,27.13
2023-03-16T08:16:02.200Z,34.95
2023-03-16T08:18:30.250Z,30.45
2023-03-16T08:20:58.645Z,28.73
2023-03-16T08:23:26.097Z,33.35
2023-03-16T08:25:57.583Z,30.80
2023-03-16T08:28:26.059Z,29.48
2023-03-16T08:30:55.640Z,27.70
2023-03-16T08:33:23.527Z,20.75
2023-03-16T08:35:53.420Z,25.15
2023-03-16T08:38:21.677Z,19.13
2023-03-16T08:40:50.721Z,20.30
2023-03-16T08:43:19.154Z,28.48
2023-03-16T08:45:47.124Z,26.70
2023-03-16T08:48:14.959Z,23.20
2023-03-16T08:50:44.238Z,25.35
2023-03-16T08:53:13.677Z,26.20
2023-03-16T08:55:44.131Z,24.00
2023-03-16T08:58:12.353Z,31.48
2023-03-16T09:00:40.060Z,32.55
2023-03-16T09:03:07.495Z,19.20
2023-03-16T09:05:34.805Z,22.25
2023-03-16T09:08:01.884Z,22.00
2023-03-16T09:10:29.137Z,31.50
2023-03-16T09:12:56.859Z,25.27
2023-03-16T09:15:23.798Z,26.58
2023-03-16T09:17:51.215Z,28.40
2023-03-16T09:20:22.866Z,24.13
2023-03-16T09:22:54.699Z,16.92
2023-03-16T09:25:21.888Z,21.13
2023-03-16T09:27:48.898Z,21.85
2023-03-16T09:30:17.114Z,21.00
2023-03-16T09:32:45.124Z,21.70
2023-03-16T09:35:12.074Z,17.98
2023-03-16T09:37:45.129Z,24.67
2023-03-16T09:40:25.672Z,20.95
2023-03-16T09:43:04.188Z,20.35
2023-03-16T09:46:06.647Z,21.58
2023-03-16T09:48:35.998Z,23.20
2023-03-16T09:51:06.633Z,20.63
2023-03-16T09:53:39.416Z,22.05
2023-03-16T09:56:46.456Z,22.08
2023-03-16T09:59:17.460Z,24.77
2023-03-16T10:04:27.990Z,22.52
2023-03-16T10:07:09.890Z,22.08
2023-03-16T10:09:46.004Z,18.95
2023-03-16T10:12:14.758Z,28.98
2023-03-16T10:14:54.149Z,21.67
2023-03-16T10:17:30.992Z,20.90
2023-03-16T10:20:04.828Z,14.52
2023-03-16T10:22:39.321Z,19.38
2023-03-16T10:25:40.219Z,20.85
2023-03-16T10:28:07.511Z,15.63
2023-03-16T10:30:38.712Z,17.00
2023-03-16T10:33:28.027Z,20.83
2023-03-16T10:36:37.912Z,18.20
2023-03-16T10:39:11.986Z,19.55
2023-03-16T10:41:58.193Z,19.60
2023-03-16T10:44:28.623Z,17.02
2023-03-16T10:47:07.446Z,16.60
2023-03-16T10:49:44.595Z,24.48
2023-03-16T10:52:23.964Z,15.93
2023-03-16T10:54:55.078Z,20.77
2023-03-16T11:00:21.019Z,19.92
2023-03-16T11:02:55.773Z,18.45
2023-03-16T11:05:31.265Z,19.17
2023-03-16T11:08:18.811Z,18.13
2023-03-16T11:10:56.180Z,22.90
2023-03-16T11:13:24.832Z,15.40
2023-03-16T11:16:23.151Z,15.98
2023-03-16T11:18:57.482Z,15.48
2023-03-16T11:21:46.832Z,17.55
2023-03-16T11:24:25.865Z,17.38
2023-03-16T11:26:58.740Z,19.98
2023-03-16T11:30:01.922Z,18.70
2023-03-16T11:32:39.171Z,18.17
2023-03-16T11:35:19.702Z,14.48
2023-03-16T11:38:16.905Z,13.20
2023-03-16T11:41:18.454Z,74.53
2023-03-16T11:43:57.050Z,18.15
2023-03-16T11:46:31.588Z,17.05
2023-03-16T11:49:15.923Z,23.23
2023-03-16T11:51:51.798Z,20.75
2023-03-16T11:54:37.484Z,16.85
2023-03-16T11:57:31.487Z,16.38
2023-03-16T12:00:22.844Z,20.65
2023-03-16T12:05:30.523Z,14.15
2023-03-16T12:08:24.711Z,15.23
2023-03-16T12:11:17.690Z,21.42
2023-03-16T12:14:15.806Z,17.08
2023-03-16T12:16:54.002Z,16.92
2023-03-16T12:19:29.121Z,16.70
2023-03-16T12:22:06.134Z,17.95
2023-03-16T12:24:42.756Z,18.45
2023-03-16T12:27:17.688Z,11.13
2023-03-16T12:30:03.995Z,18.42
2023-03-16T12:32:47.082Z,12.85
2023-03-16T12:35:31.730Z,12.85
2023-03-16T12:38:23.411Z,13.63
2023-03-16T12:41:20.580Z,17.90
2023-03-16T12:43:59.768Z,9.80
2023-03-16T12:46:53.629Z,19.85
2023-03-16T12:49:21.319Z,20.05
2023-03-16T12:51:59.733Z,19.90
2023-03-16T12:54:27.652Z,19.67
2023-03-16T12:57:02.820Z,18.60
2023-03-16T12:59:40.597Z,15.07
2023-03-16T13:02:15.786Z,17.55
2023-03-16T13:04:45.839Z,15.65
2023-03-16T13:07:20.194Z,13.50
2023-03-16T13:09:52.587Z,15.13
2023-03-16T13:12:28.458Z,18.52
2023-03-16T13:14:57.548Z,17.27
2023-03-16T13:17:42.837Z,22.17
2023-03-16T13:20:21.000Z,15.23
2023-03-16T13:23:22.651Z,21.02
2023-03-16T13:26:03.432Z,20.48
2023-03-16T13:28:33.568Z,21.35
2023-03-16T13:31:01.540Z,18.45
2023-03-16T13:33:31.857Z,27.10
2023-03-16T13:36:00.276Z,18.70
2023-03-16T13:38:28.797Z,17.55
2023-03-16T13:40:58.785Z,19.33
2023-03-16T13:43:32.912Z,15.73
2023-03-16T13:46:00.132Z,19.70
2023-03-16T13:48:27.040Z,15.45
2023-03-16T13:50:58.887Z,15.45
2023-03-16T13:53:33.260Z,18.83
2023-03-16T13:56:02.724Z,19.98
2023-03-16T13:58:36.281Z,13.93
2023-03-16T14:01:11.953Z,17.60
2023-03-16T14:03:42.406Z,15.23
2023-03-16T14:06:26.544Z,17.33
2023-03-16T14:08:59.138Z,19.88
2023-03-16T14:11:27.237Z,17.42
2023-03-16T14:13:56.379Z,17.70
2023-03-16T14:16:25.642Z,14.95
2023-03-16T14:19:01.082Z,15.07
2023-03-16T14:21:31.591Z,20.42
2023-03-16T14:24:00.343Z,17.08
2023-03-16T14:26:27.291Z,17.38
2023-03-16T14:29:18.755Z,15.27
2023-03-16T14:31:46.134Z,19.10
2023-03-16T14:34:25.435Z,15.07
2023-03-16T14:36:52.988Z,20.52
2023-03-16T14:39:21.673Z,17.42
2023-03-16T14:41:51.396Z,22.60
2023-03-16T14:44:38.545Z,18.52
2023-03-16T14:47:07.280Z,14.27
2023-03-16T14:49:37.537Z,17.95
2023-03-16T14:52:23.377Z,14.10
2023-03-16T14:54:51.607Z,15.35
2023-03-16T14:57:19.627Z,20.67
2023-03-16T14:59:46.909Z,20.15
2023-03-16T15:02:18.807Z,26.85
2023-03-16T15:04:46.988Z,18.90
2023-03-16T15:07:26.906Z,18.33
2023-03-16T15:09:55.633Z,24.90
2023-03-16T15:12:25.169Z,24.65
2023-03-16T15:15:10.845Z,21.45
2023-03-16T15:17:37.785Z,20.30
2023-03-16T15:20:05.408Z,19.92
2023-03-16T15:22:37.254Z,31.35
2023-03-16T15:25:20.939Z,35.75
2023-03-16T15:27:48.396Z,37.95
2023-03-16T15:30:21.857Z,42.17
2023-03-16T15:32:49.078Z,27.52
2023-03-16T15:35:16.829Z,24.27
2023-03-16T15:37:44.709Z,28.50
2023-03-16T15:40:39.591Z,22.33
2023-03-16T15:43:11.419Z,24.77
2023-03-16T15:45:38.660Z,21.33
2023-03-16T15:48:06.015Z,18.00
2023-03-16T15:50:33.425Z,18.80
2023-03-16T15:53:05.950Z,23.65
2023-03-16T15:55:35.335Z,19.25
2023-03-16T15:58:03.687Z,31.23
2023-03-16T16:00:39.727Z,22.15
2023-03-16T16:03:10.094Z,23.30
2023-03-16T16:05:38.101Z,24.70
2023-03-16T16:08:05.179Z,25.13
2023-03-16T16:10:32.449Z,6.53
2023-03-16T16:13:00.150Z,13.07
2023-03-16T16:15:33.812Z,7.60
2023-03-16T16:18:20.330Z,8.45
2023-03-16T16:20:48.439Z,9.18
2023-03-16T16:23:15.422Z,9.82
2023-03-16T16:25:42.642Z,10.10
2023-03-16T16:28:19.559Z,8.65
2023-03-16T16:30:47.759Z,7.20
2023-03-16T16:33:32.608Z,8.23
2023-03-16T16:36:02.014Z,7.43
2023-03-16T16:38:29.401Z,5.88
2023-03-16T16:40:59.630Z,9.90
2023-03-16T16:43:45.569Z,11.05
2023-03-16T16:46:16.732Z,8.85
2023-03-16T16:48:46.978Z,8.85
2023-03-16T16:51:26.741Z,12.55
2023-03-16T16:53:55.835Z,11.38
2023-03-16T16:56:35.897Z,14.13
2023-03-16T16:59:33.881Z,16.23
2023-03-16T17:02:21.741Z,18.95
2023-03-16T17:04:50.897Z,9.93
2023-03-16T17:07:18.160Z,11.90
2023-03-16T17:09:45.203Z,7.78
2023-03-16T17:12:22.795Z,9.90
2023-03-16T17:14:50.799Z,10.82
2023-03-16T17:17:18.797Z,11.25
2023-03-16T17:19:47.019Z,9.65
2023-03-16T17:22:25.273Z,12.40
2023-03-16T17:24:53.298Z,12.55
2023-03-16T17:27:26.240Z,13.05
2023-03-16T17:29:54.010Z,12.95
2023-03-16T17:32:25.664Z,12.23
2023-03-16T17:34:52.722Z,14.50
2023-03-16T17:37:22.358Z,12.43
2023-03-16T17:39:49.623Z,14.55
2023-03-16T17:42:18.947Z,11.98
2023-03-16T17:44:48.718Z,10.88
2023-03-16T17:47:24.372Z,8.60
2023-03-16T17:49:52.136Z,10.85
2023-03-16T17:52:25.486Z,12.82
2023-03-16T17:54:53.860Z,13.80
2023-03-16T17:57:32.716Z,18.73
2023-03-16T18:00:01.264Z,17.58
2023-03-16T18:02:46.426Z,13.95
2023-03-16T18:05:19.831Z,27.35
2023-03-16T18:07:47.177Z,22.40
2023-03-16T18:10:16.046Z,19.83
2023-03-16T18:12:44.257Z,22.02
2023-03-16T18:15:16.800Z,24.42
2023-03-16T18:17:44.720Z,23.17
2023-03-16T18:20:34.571Z,22.95
2023-03-16T18:23:10.525Z,25.58
2023-03-16T18:25:39.360Z,22.77
2023-03-16T18:28:13.917Z,24.20
2023-03-16T18:30:43.695Z,26.05
2023-03-16T18:33:31.660Z,24.27
2023-03-16T18:36:08.134Z,22.23
2023-03-16T18:38:39.364Z,24.48
2023-03-16T18:41:21.054Z,26.02
2023-03-16T18:43:48.696Z,28.50
2023-03-16T18:46:28.151Z,35.75
2023-03-16T18:48:57.688Z,31.65
2023-03-16T18:51:25.700Z,37.42
2023-03-16T18:53:53.564Z,37.63
2023-03-16T18:56:27.226Z,38.65
2023-03-16T18:58:55.459Z,43.50
2023-03-16T19:01:26.059Z,45.28
2023-03-16T19:03:53.938Z,41.80
2023-03-16T19:06:41.135Z,49.22
2023-03-16T19:09:13.646Z,49.38
2023-03-16T19:11:44.674Z,48.60
2023-03-16T19:16:53.008Z,39.05
2023-03-16T19:19:24.398Z,38.65
2023-03-16T19:21:58.912Z,43.22
2023-03-16T19:24:28.132Z,32.53
2023-03-16T19:26:56.595Z,39.65
2023-03-16T19:29:34.179Z,35.47
2023-03-16T19:32:02.260Z,126.32
2023-03-16T19:34:29.511Z,48.00
2023-03-16T19:36:56.515Z,46.75
2023-03-16T19:39:23.489Z,55.67
2023-03-16T19:41:56.557Z,77.30
2023-03-16T19:44:26.428Z,80.72
2023-03-16T19:46:55.024Z,88.47
2023-03-16T19:49:27.122Z,108.55
2023-03-16T19:51:55.895Z,106.85
2023-03-16T19:54:26.817Z,111.32
2023-03-16T19:59:29.204Z,103.28
2023-03-16T20:01:56.167Z,106.72
2023-03-16T20:04:25.980Z,104.63
2023-03-16T20:06:54.049Z,102.50
2023-03-16T20:09:22.266Z,94.38
2023-03-16T20:11:50.152Z,93.82
2023-03-16T20:14:33.606Z,94.28
2023-03-16T20:17:01.106Z,71.20
2023-03-16T20:19:28.664Z,71.30
2023-03-16T20:21:55.862Z,66.15
2023-03-16T20:24:23.344Z,60.05
2023-03-16T20:26:51.557Z,52.25
2023-03-16T20:29:33.271Z,52.38
2023-03-16T20:32:01.379Z,50.58
2023-03-16T20:34:31.289Z,49.45
2023-03-16T20:36:58.887Z,36.35
2023-03-16T20:39:26.045Z,34.90
2023-03-16T20:41:53.162Z,35.22
2023-03-16T20:44:23.668Z,37.03
2023-03-16T20:46:50.617Z,38.33
2023-03-16T20:49:25.361Z,40.95
2023-03-16T20:51:52.469Z,41.83
2023-03-16T20:54:19.348Z,37.83
2023-03-16T20:56:46.924Z,46.65
2023-03-16T20:59:24.917Z,47.97
2023-03-16T21:01:54.735Z,45.80
2023-03-16T21:04:27.614Z,44.05
2023-03-16T21:06:55.773Z,43.03
2023-03-16T21:09:22.718Z,39.38
2023-03-16T21:11:49.921Z,48.67
2023-03-16T21:14:22.208Z,49.13
2023-03-16T21:16:50.197Z,54.97
2023-03-16T21:19:23.078Z,63.30
2023-03-16T21:21:50.900Z,60.97
2023-03-16T21:24:17.942Z,63.35
2023-03-16T21:26:47.530Z,62.45
2023-03-16T21:29:17.934Z,60.70
2023-03-16T21:31:44.956Z,63.47
2023-03-16T21:34:28.052Z,59.85
2023-03-16T21:36:54.910Z,62.45
2023-03-16T21:39:25.219Z,58.17
2023-03-16T21:41:53.667Z,64.30
2023-03-16T21:44:20.841Z,60.80
2023-03-16T21:46:47.986Z,57.22
2023-03-16T21:49:15.965Z,56.60
2023-03-16T21:51:43.456Z,46.33
2023-03-16T21:54:17.016Z,49.65
2023-03-16T21:56:44.433Z,47.28
2023-03-16T21:59:11.903Z,45.45
2023-03-16T22:01:50.884Z,43.80
2023-03-16T22:04:21.761Z,38.65
2023-03-16T22:06:48.689Z,203.68
2023-03-16T22:09:20.688Z,45.40
2023-03-16T22:11:47.660Z,41.95
2023-03-16T22:14:14.583Z,44.67
2023-03-16T22:16:42.035Z,43.10
2023-03-16T22:19:13.507Z,37.92
2023-03-16T22:21:43.850Z,41.67
2023-03-16T22:24:19.235Z,43.67
2023-03-16T22:26:47.645Z,42.05
2023-03-16T22:29:25.523Z,37.08
2023-03-16T22:31:56.140Z,38.03
2023-03-16T22:34:50.525Z,30.85
2023-03-16T22:37:24.028Z,25.80
2023-03-16T22:39:51.349Z,24.73
2023-03-16T22:42:29.071Z,27.27
2023-03-16T22:44:56.616Z,29.42
2023-03-16T22:47:26.488Z,30.30
2023-03-16T22:49:53.965Z,22.65
2023-03-16T22:52:25.655Z,18.73
2023-03-16T22:54:53.090Z,19.23
2023-03-16T22:57:20.352Z,23.55
2023-03-16T22:59:48.277Z,22.30
2023-03-16T23:02:16.362Z,27.95
2023-03-16T23:04:44.593Z,26.48
2023-03-16T23:07:13.346Z,29.95
2023-03-16T23:09:40.697Z,28.73
2023-03-16T23:12:26.199Z,37.50
2023-03-16T23:14:53.148Z,38.83
2023-03-16T23:17:25.008Z,42.95
2023-03-16T23:19:52.047Z,42.90
2023-03-16T23:22:18.891Z,50.13
2023-03-16T23:24:45.884Z,44.53
2023-03-16T23:27:19.192Z,42.97
2023-03-16T23:29:46.764Z,40.55
2023-03-16T23:32:15.553Z,39.22
2023-03-16T23:34:42.474Z,44.22
2023-03-16T23:37:09.455Z,39.75
2023-03-16T23:39:36.676Z,37.55
2023-03-16T23:42:04.690Z,31.65
2023-03-16T23:44:31.691Z,29.92
2023-03-16T23:46:59.573Z,29.48
2023-03-16T23:49:32.921Z,33.45
2023-03-16T23:52:01.865Z,29.15
2023-03-16T23:54:31.398Z,29.92
2023-03-16T23:56:58.671Z,30.15
2023-03-16T23:59:26.771Z,32.30
